Terminal Aerodrome Forecast
Issued by NWS

Home | Current Version | Previous Version | Text Only | Print | Product List | Glossary Off
Versions: 1 2 3 4 5 6 7 8 9 10 11 12 13 14 15 16 17

895
FTUS43 KICT 280520
TAFHUT
TAF
KHUT 280520Z 2806/2906 07004KT P6SM FEW250
     FM281100 VRB03KT P6SM SCT080 SCT250
     FM281700 13007KT P6SM SCT050
      TEMPO 2900/2904 5SM TSRA BKN035CB
     FM290500 09009KT P6SM VCSH SCT050 BKN100=

USA.gov is the U.S. government's official web portal to all federal, state and local government web resources and services.